Time;durP1;ratioP1;P1;durP2;ratioP2;P2;SDS_P1;SDS_P2;PMS_P1;PMS_P2;Temp;Humidity;BMP_temperature;BMP_pressure;BME280_temperature;BME280_humidity;BME280_pressure;Samples;Min_cycle;Max_cycle;Signal;HPM_P1;HPM_P2
2022/09/26 00:01:27;;;;;;;9.58;8.08;;;;;;;13.10;64.47;99037.22;1665362;85;20154;-44
2022/09/26 00:03:55;;;;;;;;;;;;;;;13.01;64.58;99043.61;1689381;85;21048;-44
2022/09/26 00:06:22;;;;;;;15.25;8.68;;;;;;;13.02;64.47;99045.93;1686837;85;20221;-44
2022/09/26 00:08:49;;;;;;;10.55;8.40;;;;;;;12.93;64.72;99044.72;1686871;85;21254;-44
2022/09/26 00:11:21;;;;;;;11.30;8.40;;;;;;;12.96;65.05;99043.40;1686786;85;21001;-44
2022/09/26 00:13:55;;;;;;;10.90;8.38;;;;;;;12.98;65.35;99043.78;1686818;85;21029;-44
2022/09/26 00:16:23;;;;;;;15.18;8.48;;;;;;;12.99;65.36;99041.84;1687113;85;21520;-44
2022/09/26 00:18:53;;;;;;;10.80;8.45;;;;;;;12.98;65.42;99037.55;1687106;85;21047;-44
2022/09/26 00:21:22;;;;;;;11.20;7.97;;;;;;;13.00;65.67;99039.33;1687375;85;21827;-44
2022/09/26 00:23:49;;;;;;;9.93;8.10;;;;;;;12.72;65.80;98991.60;1687048;85;21061;-44
2022/09/26 00:26:18;;;;;;;12.40;8.68;;;;;;;13.08;66.19;99037.59;1686996;85;20993;-44
2022/09/26 00:28:47;;;;;;;11.38;8.45;;;;;;;13.10;66.43;99035.87;1687024;85;21061;-44
2022/09/26 00:31:18;;;;;;;9.80;8.65;;;;;;;13.10;66.67;99038.59;1687299;85;21051;-44
2022/09/26 00:33:45;;;;;;;9.80;8.80;;;;;;;13.10;66.75;99038.59;1687145;85;21214;-44
2022/09/26 00:36:14;;;;;;;10.53;8.55;;;;;;;13.10;66.79;99037.22;1686947;85;21046;-44
2022/09/26 00:38:41;;;;;;;11.15;8.25;;;;;;;13.07;66.91;99035.25;1686803;85;20985;-44
2022/09/26 00:41:08;;;;;;;9.73;7.78;;;;;;;13.07;67.08;99034.67;1686691;85;21623;-44
2022/09/26 00:43:44;;;;;;;12.23;8.85;;;;;;;13.12;67.22;99034.91;1686814;85;21037;-44
2022/09/26 00:46:38;;;;;;;12.35;8.08;;;;;;;13.17;67.31;99033.79;1686850;85;21135;-44
2022/09/26 00:49:37;;;;;;;9.98;8.33;;;;;;;13.13;67.28;99037.84;1686132;85;21733;-44
2022/09/26 00:52:33;;;;;;;13.55;8.68;;;;;;;13.08;67.58;99037.59;1633844;86;21120;-44
2022/09/26 00:55:03;;;;;;;11.78;8.95;;;;;;;13.00;67.66;99038.75;1633525;86;21076;-44
2022/09/26 00:57:38;;;;;;;10.43;8.18;;;;;;;12.95;68.02;99046.49;1668093;85;21836;-44
2022/09/26 01:00:09;;;;;;;9.50;7.75;;;;;;;12.96;68.22;99043.98;1687212;85;21935;-44
2022/09/26 01:02:36;;;;;;;10.58;8.35;;;;;;;13.00;68.23;99047.48;1687045;85;21021;-44
2022/09/26 01:05:05;;;;;;;12.60;8.38;;;;;;;12.98;68.40;99034.83;1686850;85;20990;-44
2022/09/26 01:07:32;;;;;;;11.53;8.50;;;;;;;12.95;68.77;99035.03;1686915;85;20990;-44
2022/09/26 01:10:03;;;;;;;9.53;8.48;;;;;;;12.93;68.95;99031.12;1682527;85;21566;-44
2022/09/26 01:12:31;;;;;;;11.38;8.80;;;;;;;12.92;69.13;99028.22;1687251;85;21072;-44
2022/09/26 01:14:59;;;;;;;10.45;8.38;;;;;;;12.92;69.09;99028.22;1686748;85;21103;-43
2022/09/26 01:17:26;;;;;;;10.93;8.48;;;;;;;12.92;68.97;99020.06;1688574;84;21025;-44
2022/09/26 01:20:18;;;;;;;13.00;8.55;;;;;;;12.97;68.79;99021.80;1687105;85;21441;-44
2022/09/26 01:23:20;;;;;;;12.07;9.15;;;;;;;13.01;68.58;99016.40;1686834;85;21061;-44
2022/09/26 01:26:08;;;;;;;12.90;8.98;;;;;;;12.99;68.70;99015.98;1686777;85;23189;-44
2022/09/26 01:28:59;;;;;;;9.90;8.85;;;;;;;12.94;68.69;99012.28;1686929;85;20980;-44
2022/09/26 01:35:10;;;;;;;10.98;8.30;;;;;;;12.88;68.94;99012.44;1687138;85;21001;-44
2022/09/26 01:38:05;;;;;;;13.53;8.63;;;;;;;12.84;68.65;99016.52;1687050;85;21026;-44
2022/09/26 01:41:01;;;;;;;12.18;8.20;;;;;;;12.85;68.61;99014.00;1687169;84;23161;-44
2022/09/26 01:43:57;;;;;;;10.80;8.70;;;;;;;12.83;68.83;99016.92;1656948;84;21120;-44
2022/09/26 01:47:03;;;;;;;11.60;8.58;;;;;;;12.80;69.18;99013.00;1687064;85;21005;-44
2022/09/26 01:50:05;;;;;;;10.15;7.78;;;;;;;12.76;69.40;99008.72;1686798;85;21606;-44
2022/09/26 01:53:04;;;;;;;17.23;8.43;;;;;;;12.77;69.38;99012.42;1683790;85;21662;-44
2022/09/26 01:55:43;;;;;;;12.88;8.50;;;;;;;12.79;69.19;99016.09;1687047;85;21920;-43
2022/09/26 01:58:33;;;;;;;10.75;8.73;;;;;;;12.74;69.31;99015.10;1686752;85;20973;-44
2022/09/26 02:01:02;;;;;;;12.20;9.25;;;;;;;12.70;69.27;99007.52;1686635;84;21058;-44
2022/09/26 02:03:33;;;;;;;12.33;8.53;;;;;;;12.65;69.11;99019.53;1687222;85;21081;-44
2022/09/26 02:06:11;;;;;;;11.15;9.65;;;;;;;12.61;69.27;99019.53;1686852;85;21065;-44
2022/09/26 02:08:51;;;;;;;11.57;8.85;;;;;;;12.59;69.45;99008.23;1686989;85;21794;-44
2022/09/26 02:11:19;;;;;;;13.08;8.38;;;;;;;12.59;69.42;99005.52;1686401;84;21134;-44
2022/09/26 02:13:54;;;;;;;13.72;9.03;;;;;;;12.64;69.50;99012.53;1686650;85;21547;-44
2022/09/26 02:16:32;;;;;;;11.25;8.85;;;;;;;12.68;69.46;99007.91;1686954;85;21567;-44
2022/09/26 02:19:23;;;;;;;11.50;8.75;;;;;;;12.68;69.49;99005.20;1686978;85;21080;-44
2022/09/26 02:21:50;;;;;;;12.35;9.30;;;;;;;12.68;69.51;98997.03;1686919;85;21284;-44
2022/09/26 02:24:17;;;;;;;12.35;7.90;;;;;;;12.66;69.60;99000.70;1686716;85;20950;-44
2022/09/26 02:26:44;;;;;;;11.75;8.30;;;;;;;12.70;69.69;98993.91;1686757;85;21056;-44
2022/09/26 02:29:13;;;;;;;15.50;8.10;;;;;;;12.76;69.64;98986.95;1686799;85;21062;-44
2022/09/26 02:31:48;;;;;;;9.48;7.70;;;;;;;12.81;69.68;98979.78;1686920;85;21595;-43
2022/09/26 02:34:15;;;;;;;9.43;8.10;;;;;;;12.80;69.60;98988.52;1686607;85;21134;-43
2022/09/26 02:36:43;;;;;;;11.53;8.25;;;;;;;12.78;69.76;98981.92;1686752;85;21622;-44
2022/09/26 02:39:12;;;;;;;11.48;7.97;;;;;;;12.76;69.79;98983.66;1665406;85;21056;-44
2022/09/26 02:42:13;;;;;;;10.18;7.75;;;;;;;12.73;69.70;98982.28;1686023;85;21496;-44
2022/09/26 02:45:26;;;;;;;8.80;7.17;;;;;;;12.73;69.81;98980.92;1687393;85;21575;-44
2022/09/26 02:48:14;;;;;;;12.18;7.28;;;;;;;12.77;69.84;98970.25;1686943;85;21429;-44
2022/09/26 02:51:09;;;;;;;9.33;7.50;;;;;;;12.75;70.06;98965.77;1686673;85;21045;-44
2022/09/26 02:54:06;;;;;;;8.73;7.87;;;;;;;12.74;70.12;98958.77;1686824;83;21064;-44
2022/09/26 02:57:00;;;;;;;10.32;8.03;;;;;;;12.74;70.04;98967.50;1686366;85;21030;-44
2022/09/26 02:59:59;;;;;;;10.20;7.45;;;;;;;12.69;69.78;98970.59;1634176;85;21128;-45
2022/09/26 03:02:43;;;;;;;11.37;7.20;;;;;;;12.67;69.56;98971.57;1687045;85;22057;-44
2022/09/26 03:08:26;;;;;;;10.38;8.13;;;;;;;12.71;70.03;98965.56;1778846;78;22696;-43
2022/09/26 03:10:58;;;;;;;9.75;7.87;;;;;;;12.64;69.86;98967.66;1755286;81;21032;-44
2022/09/26 03:13:25;;;;;;;10.03;7.80;;;;;;;12.61;69.74;98970.58;1755389;81;21031;-44
2022/09/26 03:15:54;;;;;;;12.43;8.20;;;;;;;12.59;69.98;98968.80;1755283;81;20940;-44
2022/09/26 03:18:27;;;;;;;10.43;7.53;;;;;;;12.58;69.67;98965.13;1755419;81;20963;-44
2022/09/26 03:20:54;;;;;;;10.50;8.15;;;;;;;12.60;69.72;98974.45;1755263;81;21529;-44
2022/09/26 03:23:24;;;;;;;10.25;7.80;;;;;;;12.57;69.81;98977.95;1755322;81;20948;-44
2022/09/26 03:26:02;;;;;;;10.08;7.75;;;;;;;12.52;69.88;98972.87;1755128;81;21154;-44
2022/09/26 03:28:29;;;;;;;9.25;8.25;;;;;;;12.48;70.01;98976.16;1754151;81;20967;-44
2022/09/26 03:30:56;;;;;;;8.28;7.10;;;;;;;12.45;70.26;98967.38;1721210;81;21007;-44
2022/09/26 03:33:25;;;;;;;11.80;7.25;;;;;;;12.48;70.34;98955.77;1753814;81;20940;-44
2022/09/26 03:35:51;;;;;;;9.10;7.58;;;;;;;12.54;70.33;98946.63;1755491;81;21075;-44
2022/09/26 03:38:19;;;;;;;9.23;7.58;;;;;;;12.59;70.35;98944.33;1755438;81;21886;-44
2022/09/26 03:40:52;;;;;;;10.80;8.23;;;;;;;12.62;70.38;98926.48;1754108;81;21077;-44
2022/09/26 03:43:32;;;;;;;9.93;7.67;;;;;;;12.61;70.43;98929.00;1749536;80;21526;-44
2022/09/26 03:46:04;;;;;;;11.48;8.03;;;;;;;12.57;70.40;98933.66;1772716;81;21092;-44
2022/09/26 03:48:32;;;;;;;8.48;7.58;;;;;;;12.57;70.53;98932.30;1772658;81;20945;-44
2022/09/26 03:51:07;;;;;;;9.48;8.00;;;;;;;12.60;70.62;98937.73;1773047;81;21706;-45
2022/09/26 03:53:37;;;;;;;9.88;8.03;;;;;;;12.64;70.72;98935.80;1772537;81;21040;-44
2022/09/26 03:56:10;;;;;;;9.50;8.00;;;;;;;12.64;70.75;98929.00;1740743;81;20910;-45
2022/09/26 03:58:37;;;;;;;9.55;8.20;;;;;;;12.64;70.83;98929.00;1772707;81;21503;-45
2022/09/26 04:01:09;;;;;;;11.85;7.55;;;;;;;12.64;70.85;98937.74;1772860;81;20961;-44
2022/09/26 04:03:39;;;;;;;8.95;7.42;;;;;;;12.66;70.75;98940.09;1772811;81;21208;-44
2022/09/26 04:06:07;;;;;;;8.03;7.22;;;;;;;12.70;70.72;98937.58;1773037;80;21024;-44
2022/09/26 04:08:40;;;;;;;9.48;7.95;;;;;;;12.74;70.57;98940.30;1784373;80;21072;-45
2022/09/26 04:11:10;;;;;;;8.73;7.15;;;;;;;12.72;70.63;98941.28;1784413;80;21034;-44
2022/09/26 04:13:38;;;;;;;10.38;7.62;;;;;;;12.69;70.63;98931.16;1784319;80;21080;-44
2022/09/26 04:16:08;;;;;;;8.55;6.80;;;;;;;12.67;70.57;98929.41;1783997;80;20996;-44
2022/09/26 04:18:36;;;;;;;11.80;7.17;;;;;;;12.68;70.51;98936.42;1783496;80;20965;-44
2022/09/26 04:21:08;;;;;;;9.35;7.25;;;;;;;12.69;70.51;98922.42;1783395;80;20933;-45
2022/09/26 04:23:38;;;;;;;10.00;6.90;;;;;;;12.71;70.46;98922.83;1783176;80;20956;-44
2022/09/26 04:26:14;;;;;;;8.90;7.60;;;;;;;12.69;70.44;98929.80;1783855;80;21060;-44
2022/09/26 04:28:41;;;;;;;9.13;7.85;;;;;;;12.63;70.54;98930.16;1783376;80;21253;-44
2022/09/26 04:31:13;;;;;;;10.50;7.72;;;;;;;12.58;70.39;98932.50;1783317;80;20993;-44
2022/09/26 04:33:39;;;;;;;8.98;7.22;;;;;;;12.53;70.52;98939.66;1783031;80;21023;-44
2022/09/26 04:36:10;;;;;;;8.60;6.50;;;;;;;12.49;70.69;98936.91;1782528;80;21016;-44
2022/09/26 04:38:38;;;;;;;8.60;7.37;;;;;;;12.54;70.66;98941.98;1783312;80;21604;-44
2022/09/26 04:41:12;;;;;;;9.43;7.50;;;;;;;12.57;70.70;98949.39;1783293;80;21193;-44
2022/09/26 04:43:39;;;;;;;8.83;7.35;;;;;;;12.54;70.71;98939.27;1782677;80;21534;-44
2022/09/26 04:46:10;;;;;;;9.50;7.10;;;;;;;12.49;70.69;98938.27;1783326;80;21550;-44
2022/09/26 04:48:37;;;;;;;8.18;6.65;;;;;;;12.47;70.94;98939.82;1783341;80;21024;-44
2022/09/26 04:51:12;;;;;;;6.85;6.10;;;;;;;12.47;70.96;98922.94;1782346;80;21088;-44
2022/09/26 04:53:40;;;;;;;10.03;6.70;;;;;;;12.53;70.88;98921.41;1783434;80;21078;-44
2022/09/26 04:56:10;;;;;;;7.65;6.50;;;;;;;12.56;70.84;98926.08;1781508;80;21487;-44
2022/09/26 04:58:37;;;;;;;8.33;7.37;;;;;;;12.53;70.92;98917.33;1783524;80;21020;-44
2022/09/26 05:01:07;;;;;;;9.00;7.05;;;;;;;12.54;70.98;98916.72;1783453;80;21203;-44
2022/09/26 05:03:37;;;;;;;7.47;6.67;;;;;;;12.54;70.93;98903.13;1779817;80;21550;-44
2022/09/26 05:06:07;;;;;;;8.88;6.22;;;;;;;12.58;70.95;98911.52;1783247;80;21248;-44
2022/09/26 05:08:36;;;;;;;9.35;6.30;;;;;;;12.66;70.84;98911.53;1763417;80;20981;-44
2022/09/26 05:11:05;;;;;;;9.78;6.22;;;;;;;12.68;70.83;98918.16;1761812;80;21017;-44
2022/09/26 05:13:32;;;;;;;7.70;6.47;;;;;;;12.68;70.77;98916.02;1738153;81;20973;-44
2022/09/26 05:16:01;;;;;;;7.53;6.67;;;;;;;12.69;70.89;98918.91;1761699;81;20966;-44
2022/09/26 05:18:28;;;;;;;8.48;7.05;;;;;;;12.69;70.84;98924.35;1761529;81;21118;-44
2022/09/26 05:20:56;;;;;;;8.58;5.92;;;;;;;12.71;70.78;98922.05;1761668;81;20962;-44
2022/09/26 05:26:28;;;;;;;10.75;7.03;;;;;;;12.80;70.40;98930.61;1761639;81;21073;-44
2022/09/26 05:29:03;;;;;;;9.38;7.00;;;;;;;12.79;70.67;98924.97;1754135;81;21037;-44
2022/09/26 05:31:35;;;;;;;7.58;6.87;;;;;;;12.78;70.80;98917.39;1760117;81;21140;-44
2022/09/26 05:34:01;;;;;;;8.18;4.83;;;;;;;12.79;70.89;98920.89;1761584;81;21483;-44
2022/09/26 05:36:28;;;;;;;10.70;6.40;;;;;;;12.79;70.90;98914.09;1761305;81;21673;-44
2022/09/26 05:38:56;;;;;;;7.03;6.33;;;;;;;12.86;70.84;98916.27;1761422;81;21085;-44
2022/09/26 05:41:23;;;;;;;11.43;6.85;;;;;;;12.92;70.69;98910.65;1761425;81;21352;-44
2022/09/26 05:43:50;;;;;;;8.60;7.28;;;;;;;12.95;70.71;98914.53;1676350;81;21995;-44
2022/09/26 05:46:17;;;;;;;8.08;7.20;;;;;;;12.98;70.79;98917.25;1761313;81;21097;-44
2022/09/26 05:48:45;;;;;;;9.40;6.40;;;;;;;13.00;70.94;98921.73;1761211;81;20962;-44
2022/09/26 05:51:19;;;;;;;8.03;5.97;;;;;;;13.06;70.73;98924.28;1761041;81;21515;-44
2022/09/26 05:53:47;;;;;;;7.20;6.47;;;;;;;13.12;70.16;98930.12;1761509;80;21030;-44
2022/09/26 05:56:16;;;;;;;7.42;6.22;;;;;;;13.14;70.15;98930.53;1761729;80;21096;-44
2022/09/26 05:59:02;;;;;;;7.60;6.37;;;;;;;13.12;70.04;98926.05;1761395;81;21009;-44
2022/09/26 06:01:35;;;;;;;8.45;6.70;;;;;;;13.09;70.08;98925.44;1761328;81;20926;-44
2022/09/26 06:04:04;;;;;;;8.15;6.22;;;;;;;13.07;69.95;98937.28;1761139;81;21480;-44
2022/09/26 06:06:34;;;;;;;7.55;6.10;;;;;;;13.10;70.09;98938.47;1761477;81;21623;-44
2022/09/26 06:09:05;;;;;;;10.00;6.62;;;;;;;13.15;70.12;98935.39;1714301;81;21235;-44
2022/09/26 06:11:49;;;;;;;7.60;6.25;;;;;;;13.19;69.97;98932.09;1703655;83;21014;-44
2022/09/26 06:14:16;;;;;;;8.18;6.30;;;;;;;13.18;70.26;98929.17;1742528;81;21089;-44
2022/09/26 06:16:43;;;;;;;7.58;6.70;;;;;;;13.17;70.11;98936.55;1761395;81;20954;-44
2022/09/26 06:19:10;;;;;;;8.48;6.42;;;;;;;13.15;69.96;98932.67;1761456;81;21559;-44
2022/09/26 06:21:39;;;;;;;8.73;5.95;;;;;;;13.12;70.02;98931.48;1761223;81;21124;-44
2022/09/26 06:24:08;;;;;;;6.45;5.62;;;;;;;13.13;70.19;98937.71;1761469;80;21535;-44
2022/09/26 06:26:36;;;;;;;7.65;6.22;;;;;;;13.17;69.71;98933.83;1761434;80;21013;-44
2022/09/26 06:29:06;;;;;;;8.03;6.67;;;;;;;13.18;69.37;98935.39;1761748;81;20958;-43
2022/09/26 06:31:35;;;;;;;9.03;6.45;;;;;;;13.07;69.52;98924.45;1761582;80;21013;-44
2022/09/26 06:34:11;;;;;;;6.28;5.53;;;;;;;13.02;69.85;98924.08;1761648;81;21304;-44
2022/09/26 06:36:44;;;;;;;6.70;5.67;;;;;;;13.02;69.98;98932.24;1760095;81;21013;-44
2022/09/26 06:39:11;;;;;;;7.90;6.17;;;;;;;13.03;70.15;98935.14;1761627;81;21488;-44
2022/09/26 06:41:38;;;;;;;6.60;5.75;;;;;;;13.11;70.38;98937.31;1761551;80;21092;-44
2022/09/26 06:44:06;;;;;;;9.88;6.42;;;;;;;13.13;69.80;98938.50;1759937;81;21080;-44
2022/09/26 06:46:52;;;;;;;7.15;5.85;;;;;;;13.05;70.04;98939.63;1761379;81;21202;-44
2022/09/26 06:49:20;;;;;;;6.90;5.70;;;;;;;12.95;70.35;98942.52;1759422;81;21022;-44
2022/09/26 06:51:49;;;;;;;7.15;5.97;;;;;;;12.88;70.44;98941.13;1760414;81;20942;-44
2022/09/26 06:54:17;;;;;;;8.10;5.50;;;;;;;12.81;70.57;98934.90;1761140;81;20935;-44
2022/09/26 06:56:44;;;;;;;7.78;5.90;;;;;;;12.79;70.85;98942.66;1761337;81;21026;-44
2022/09/26 06:59:11;;;;;;;8.23;6.17;;;;;;;12.76;71.07;98940.13;1761404;80;21113;-44
2022/09/26 07:01:40;;;;;;;7.78;6.37;;;;;;;12.70;71.27;98948.45;1760329;81;21006;-44
2022/09/26 07:04:26;;;;;;;10.18;6.20;;;;;;;12.63;71.64;98941.65;1761373;81;20993;-44
2022/09/26 07:06:58;;;;;;;8.43;5.45;;;;;;;12.61;72.23;98930.36;1759831;81;21089;-44
2022/09/26 07:09:26;;;;;;;6.05;5.45;;;;;;;12.72;72.29;98929.83;1759738;80;21112;-44
2022/09/26 07:11:54;;;;;;;8.43;6.33;;;;;;;12.87;72.16;98925.20;1791525;80;23101;-44
2022/09/26 07:14:22;;;;;;;8.60;5.72;;;;;;;12.95;71.78;98930.27;1791393;80;20958;-44
2022/09/26 07:16:53;;;;;;;9.20;6.55;;;;;;;12.97;72.13;98923.84;1791098;80;21014;-44
2022/09/26 07:19:25;;;;;;;8.90;6.95;;;;;;;13.03;72.02;98926.39;1734508;80;21264;-44
2022/09/26 07:21:56;;;;;;;8.08;6.20;;;;;;;13.06;71.72;98922.14;1790522;80;21054;-44
2022/09/26 07:24:28;;;;;;;6.50;5.67;;;;;;;13.12;71.90;98919.23;1790137;80;21623;-44
2022/09/26 07:26:56;;;;;;;10.60;6.15;;;;;;;13.25;71.66;98915.00;1791464;80;21043;-44
2022/09/26 07:29:23;;;;;;;8.25;6.40;;;;;;;13.31;71.38;98922.95;1786651;80;20998;-44
2022/09/26 07:31:51;;;;;;;8.08;6.20;;;;;;;13.27;71.39;98914.02;1791554;80;21030;-44
2022/09/26 07:34:26;;;;;;;7.28;6.20;;;;;;;13.35;71.38;98923.77;1742682;80;21029;-44
2022/09/26 07:36:53;;;;;;;6.30;5.40;;;;;;;13.35;71.18;98923.77;1791438;80;23143;-44
2022/09/26 07:39:22;;;;;;;8.45;5.78;;;;;;;13.34;71.48;98918.70;1791689;80;20977;-44
2022/09/26 07:41:49;;;;;;;7.65;6.08;;;;;;;13.35;71.64;98922.41;1791605;80;20990;-44
2022/09/26 07:44:16;;;;;;;7.37;6.05;;;;;;;13.38;71.78;98927.06;1791773;80;21085;-44
2022/09/26 07:52:34;;;;;;;9.13;6.72;;;;;;;13.49;71.70;98930.58;1789290;80;20962;-44
2022/09/26 07:55:25;;;;;;;8.25;5.85;;;;;;;13.58;71.80;98941.66;1791696;80;20975;-44
2022/09/26 07:58:05;;;;;;;6.45;5.80;;;;;;;13.63;71.53;98942.63;1791621;80;21583;-44
2022/09/26 08:00:50;;;;;;;6.85;5.72;;;;;;;13.69;72.00;98939.72;1787007;80;21961;-44
2022/09/26 08:03:27;;;;;;;8.10;6.05;;;;;;;13.78;71.49;98935.42;1742791;80;21089;-44
2022/09/26 08:05:58;;;;;;;6.72;6.03;;;;;;;13.86;71.36;98934.82;1785977;80;20965;-44
2022/09/26 08:08:28;;;;;;;10.28;6.47;;;;;;;13.92;71.45;98930.54;1791484;80;20939;-44
2022/09/26 08:11:01;;;;;;;7.85;6.15;;;;;;;13.98;71.49;98928.20;1791573;80;21548;-44
2022/09/26 08:13:38;;;;;;;8.08;5.50;;;;;;;14.07;71.27;98924.48;1789252;80;21034;-44
2022/09/26 08:16:10;;;;;;;6.40;5.03;;;;;;;14.17;70.41;98921.73;1789964;80;21205;-44
2022/09/26 08:18:39;;;;;;;9.40;6.20;;;;;;;14.25;70.37;98923.26;1791578;80;21001;-44
2022/09/26 08:21:06;;;;;;;7.53;5.97;;;;;;;14.35;70.59;98914.27;1791587;80;21057;-44
2022/09/26 08:23:33;;;;;;;7.62;5.83;;;;;;;14.48;70.36;98911.13;1791551;80;21022;-44
2022/09/26 08:26:05;;;;;;;8.98;5.60;;;;;;;14.56;70.17;98910.72;1734836;80;21006;-44
2022/09/26 08:28:36;;;;;;;7.45;6.12;;;;;;;14.66;69.19;98909.11;1790662;80;21869;-44
2022/09/26 08:31:04;;;;;;;7.60;5.50;;;;;;;14.67;68.47;98895.05;1760751;80;20962;-44
2022/09/26 08:33:34;;;;;;;6.83;5.10;;;;;;;14.76;68.36;98902.83;1791799;80;21025;-43
2022/09/26 08:36:06;;;;;;;5.75;5.00;;;;;;;14.89;68.21;98903.91;1791787;80;20935;-43
2022/09/26 08:38:38;;;;;;;7.50;5.30;;;;;;;15.00;67.81;98897.81;1788432;80;21533;-43
2022/09/26 08:41:35;;;;;;;7.60;5.10;;;;;;;15.07;67.42;98895.02;1791770;80;21290;-44
2022/09/26 08:44:28;;;;;;;6.08;5.15;;;;;;;15.19;67.78;98901.39;1789513;80;20978;-44
2022/09/26 08:47:42;;;;;;;5.75;5.12;;;;;;;15.27;67.19;98903.47;1791623;80;21037;-44
2022/09/26 08:50:36;;;;;;;7.33;4.80;;;;;;;15.19;66.44;98903.34;1791408;80;21591;-44
2022/09/26 08:53:12;;;;;;;6.10;4.53;;;;;;;15.16;66.37;98910.36;1791719;80;21058;-44
2022/09/26 08:55:43;;;;;;;6.72;4.95;;;;;;;15.17;65.92;98905.69;1790903;80;21900;-44
2022/09/26 08:58:19;;;;;;;4.97;4.47;;;;;;;15.13;65.97;98900.25;1791708;80;21001;-44
2022/09/26 09:00:52;;;;;;;5.92;4.62;;;;;;;15.10;65.88;98903.77;1774716;80;21093;-44
2022/09/26 09:03:25;;;;;;;4.70;3.92;;;;;;;15.04;66.19;98902.66;1791694;80;21061;-44
2022/09/26 09:06:12;;;;;;;6.42;4.12;;;;;;;15.04;66.41;98898.56;1791772;80;21306;-44
2022/09/26 09:08:48;;;;;;;5.70;4.30;;;;;;;15.06;66.48;98896.19;1779546;80;22053;-44
2022/09/26 09:11:54;;;;;;;5.53;4.40;;;;;;;15.14;66.49;98890.89;1723864;81;21103;-44
2022/09/26 09:15:04;;;;;;;8.00;4.15;;;;;;;15.22;66.25;98896.48;1761538;81;21594;-44
2022/09/26 09:18:08;;;;;;;6.75;4.37;;;;;;;15.29;65.82;98886.69;1758708;81;21517;-43
2022/09/26 09:21:09;;;;;;;5.03;4.10;;;;;;;15.35;66.33;98889.16;1730641;81;21505;-43
2022/09/26 09:24:06;;;;;;;6.90;3.55;;;;;;;15.46;66.19;98895.31;1658289;85;21317;-43
2022/09/26 09:27:13;;;;;;;3.98;3.50;;;;;;;15.61;64.63;98889.95;1750224;81;20929;-43
2022/09/26 09:30:19;;;;;;;4.28;3.40;;;;;;;15.73;64.22;98896.30;1761592;81;21012;-43
2022/09/26 09:33:00;;;;;;;4.40;3.60;;;;;;;15.83;64.15;98891.30;1742682;81;21083;-43
2022/09/26 09:36:02;;;;;;;5.47;3.30;;;;;;;15.97;63.29;98890.40;1755854;81;20984;-44
2022/09/26 09:38:42;;;;;;;4.55;3.08;;;;;;;16.08;63.21;98880.87;1760985;81;21248;-44
2022/09/26 09:41:27;;;;;;;5.00;3.47;;;;;;;16.25;62.69;98873.67;1760263;81;21086;-44
2022/09/26 09:44:04;;;;;;;4.17;3.15;;;;;;;16.42;63.25;98869.93;1752376;81;21205;-44
2022/09/26 09:46:35;;;;;;;5.95;3.25;;;;;;;16.66;61.64;98874.92;1761857;80;20984;-44
2022/09/26 09:49:10;;;;;;;4.08;3.15;;;;;;;16.84;61.50;98871.96;1738471;81;21078;-44
2022/09/26 09:52:21;;;;;;;3.45;2.67;;;;;;;16.95;60.22;98871.97;1759777;81;21143;-44
2022/09/26 09:55:27;;;;;;;2.80;2.60;;;;;;;17.01;59.96;98875.02;1760662;81;21510;-44
2022/09/26 09:58:36;;;;;;;3.27;2.60;;;;;;;17.13;59.96;98877.80;1730999;82;21031;-44
2022/09/26 10:01:33;;;;;;;4.30;3.10;;;;;;;17.20;58.23;98872.19;1693040;82;21675;-44
2022/09/26 10:04:32;;;;;;;4.55;3.17;;;;;;;17.24;58.51;98866.83;1707919;82;21051;-44
2022/09/26 10:07:00;;;;;;;3.47;3.17;;;;;;;17.23;57.41;98866.65;1731174;82;23251;-44
2022/09/26 10:09:41;;;;;;;6.20;3.10;;;;;;;17.23;58.80;98861.79;1714262;81;21046;-44
2022/09/26 10:12:22;;;;;;;3.10;2.80;;;;;;;17.27;58.72;98857.80;1716037;81;21476;-44
2022/09/26 10:15:26;;;;;;;3.55;3.22;;;;;;;17.35;58.32;98853.75;1760377;81;21045;-44
2022/09/26 10:18:16;;;;;;;3.87;3.33;;;;;;;17.42;56.86;98846.02;1760283;81;21053;-44
2022/09/26 10:20:52;;;;;;;4.78;3.50;;;;;;;17.45;56.85;98841.05;1730908;81;22124;-44
2022/09/26 10:23:23;;;;;;;3.77;3.37;;;;;;;17.48;56.14;98831.98;1759531;81;20998;-44
2022/09/26 10:25:52;;;;;;;6.33;3.67;;;;;;;17.54;56.21;98827.58;1760451;81;20954;-44
2022/09/26 10:28:54;;;;;;;4.75;3.67;;;;;;;17.62;56.20;98826.91;1760566;81;21077;-44
2022/09/26 10:31:35;;;;;;;4.97;3.70;;;;;;;17.77;55.56;98827.58;1760503;81;21016;-44
2022/09/26 10:34:27;;;;;;;3.85;3.45;;;;;;;18.07;55.48;98818.97;1733447;81;21247;-44
2022/09/26 10:36:58;;;;;;;3.80;3.40;;;;;;;18.40;54.52;98820.63;1760190;81;21013;-44
2022/09/26 10:42:20;;;;;;;4.87;3.67;;;;;;;19.17;53.33;98806.33;1756177;81;20982;-44
2022/09/26 10:44:49;;;;;;;4.40;3.42;;;;;;;19.55;52.31;98809.95;1760351;81;21042;-45
2022/09/26 10:47:25;;;;;;;4.22;3.47;;;;;;;19.81;51.40;98810.20;1760226;81;21375;-45
2022/09/26 10:50:16;;;;;;;3.87;2.92;;;;;;;19.99;51.30;98809.14;1760324;81;20934;-44
2022/09/26 10:53:01;;;;;;;4.70;3.42;;;;;;;20.17;49.92;98806.64;1760265;81;21030;-44
2022/09/26 10:55:42;;;;;;;5.22;3.52;;;;;;;20.39;47.73;98799.33;1760247;81;20966;-44
2022/09/26 10:58:17;;;;;;;4.28;3.45;;;;;;;20.60;48.69;98795.77;1753460;81;21034;-44
2022/09/26 11:00:47;;;;;;;5.62;3.40;;;;;;;20.74;46.67;98799.45;1760066;81;23136;-44
2022/09/26 11:03:19;;;;;;;3.90;3.50;;;;;;;20.79;46.33;98787.28;1760539;81;20985;-44
2022/09/26 11:06:37;;;;;;;3.92;3.30;;;;;;;20.80;46.21;98787.45;1729358;81;20954;-43
2022/09/26 11:09:12;;;;;;;4.47;3.50;;;;;;;20.73;46.51;98780.00;1759414;81;20950;-43
2022/09/26 11:11:57;;;;;;;4.75;3.50;;;;;;;20.74;46.90;98771.91;1717879;81;21081;-44
2022/09/26 11:14:31;;;;;;;3.80;3.40;;;;;;;20.76;47.28;98776.38;1763381;81;21492;-44
2022/09/26 11:17:02;;;;;;;3.67;3.22;;;;;;;20.74;46.25;98777.42;1762756;81;21658;-44
2022/09/26 11:19:47;;;;;;;3.95;3.30;;;;;;;20.67;46.92;98776.28;1763274;81;20938;-45
2022/09/26 11:22:25;;;;;;;4.00;3.52;;;;;;;20.62;46.61;98772.70;1763299;81;21077;-44
2022/09/26 11:25:16;;;;;;;4.33;3.30;;;;;;;20.55;46.14;98775.66;1763064;81;21097;-44
2022/09/26 11:28:05;;;;;;;3.98;3.40;;;;;;;20.50;46.28;98778.96;1763526;81;21165;-44
2022/09/26 11:30:36;;;;;;;3.92;3.02;;;;;;;20.46;45.93;98779.68;1760953;81;20997;-44
2022/09/26 11:33:10;;;;;;;5.05;2.98;;;;;;;20.42;46.54;98782.55;1763406;81;21085;-45
2022/09/26 11:36:05;;;;;;;3.47;2.92;;;;;;;20.35;46.77;98775.27;1758616;81;21046;-44
2022/09/26 11:38:55;;;;;;;3.27;2.87;;;;;;;20.25;47.13;98779.67;1763179;81;21602;-44
2022/09/26 11:41:37;;;;;;;5.12;3.05;;;;;;;20.07;47.57;98783.55;1763747;81;21862;-44
2022/09/26 11:44:30;;;;;;;4.20;2.58;;;;;;;19.89;47.07;98788.19;1763602;81;20973;-44
2022/09/26 11:47:40;;;;;;;2.87;2.60;;;;;;;19.74;48.21;98791.16;1763558;81;20974;-44
2022/09/26 11:50:49;;;;;;;3.05;2.65;;;;;;;19.58;48.03;98785.70;1762762;81;20992;-44
2022/09/26 11:53:39;;;;;;;4.72;2.45;;;;;;;19.46;48.77;98781.70;1709619;82;21509;-44
2022/09/26 11:56:26;;;;;;;4.80;2.90;;;;;;;19.32;48.47;98782.02;1733202;82;21197;-44
2022/09/26 11:59:45;;;;;;;3.37;2.92;;;;;;;19.22;49.68;98775.59;1727132;82;21029;-45
2022/09/26 12:02:46;;;;;;;5.20;3.05;;;;;;;19.17;49.47;98774.73;1733164;82;21568;-44
2022/09/26 12:05:28;;;;;;;4.00;3.30;;;;;;;19.11;49.39;98784.72;1732243;82;21018;-44
2022/09/26 12:08:15;;;;;;;3.22;2.75;;;;;;;19.02;49.50;98777.09;1743778;81;21020;-44
2022/09/26 12:11:08;;;;;;;4.25;3.05;;;;;;;18.97;48.83;98776.23;1760727;81;21247;-44
2022/09/26 12:14:08;;;;;;;3.65;2.90;;;;;;;18.92;49.57;98775.97;1760417;81;21585;-44
2022/09/26 12:16:50;;;;;;;3.12;2.83;;;;;;;18.87;49.25;98772.36;1755919;81;20931;-44
2022/09/26 12:19:34;;;;;;;3.27;2.92;;;;;;;18.81;49.51;98772.70;1757603;80;21005;-45
2022/09/26 12:22:55;;;;;;;3.15;2.80;;;;;;;18.79;49.44;98766.84;1760594;81;21030;-44
2022/09/26 12:26:04;;;;;;;4.40;2.92;;;;;;;18.78;49.04;98772.19;1760636;81;21477;-45
2022/09/26 12:29:13;;;;;;;3.62;3.30;;;;;;;18.70;50.25;98770.79;1760300;81;21093;-45
2022/09/26 12:31:51;;;;;;;4.80;3.30;;;;;;;18.66;51.03;98778.52;1760281;81;21087;-45
2022/09/26 12:34:49;;;;;;;4.35;3.25;;;;;;;18.65;52.01;98772.08;1760442;81;20995;-44
2022/09/26 12:37:56;;;;;;;3.85;3.17;;;;;;;18.70;51.69;98764.70;1760322;81;21038;-44
2022/09/26 12:41:01;;;;;;;4.15;2.80;;;;;;;18.80;52.20;98760.16;1760322;81;21234;-44